createdAt,value
2022-11-19T00:01:23.709Z,99.90
2022-11-19T00:03:53.008Z,1.00
2022-11-19T00:06:24.633Z,1.00
2022-11-19T00:08:52.885Z,99.90
2022-11-19T00:11:44.055Z,99.90
2022-11-19T00:14:13.335Z,40.90
2022-11-19T00:16:40.895Z,1.00
2022-11-19T00:19:08.045Z,1.00
2022-11-19T00:21:34.951Z,1.00
2022-11-19T00:24:02.028Z,1.00
2022-11-19T00:26:29.049Z,99.90
2022-11-19T00:28:56.274Z,99.90
2022-11-19T00:31:23.580Z,99.90
2022-11-19T00:33:50.891Z,99.90
2022-11-19T00:36:18.125Z,54.10
2022-11-19T00:38:45.186Z,1.00
2022-11-19T00:41:12.701Z,1.00
2022-11-19T00:43:49.136Z,1.00
2022-11-19T00:46:18.973Z,1.00
2022-11-19T00:48:46.906Z,1.00
2022-11-19T00:51:14.840Z,1.00
2022-11-19T00:53:41.927Z,1.00
2022-11-19T00:56:11.738Z,1.00
2022-11-19T00:58:39.399Z,99.90
2022-11-19T01:01:07.576Z,99.90
2022-11-19T01:03:36.157Z,99.90
2022-11-19T01:06:03.296Z,99.90
2022-11-19T01:08:30.713Z,99.90
2022-11-19T01:11:08.590Z,99.90
2022-11-19T01:13:36.243Z,99.90
2022-11-19T01:16:13.686Z,99.90
2022-11-19T01:18:42.367Z,67.20
2022-11-19T01:21:10.886Z,61.30
2022-11-19T01:23:40.858Z,99.90
2022-11-19T01:26:08.176Z,99.90
2022-11-19T01:28:35.181Z,99.90
2022-11-19T01:31:08.656Z,99.90
2022-11-19T01:33:37.898Z,41.00
2022-11-19T01:36:07.750Z,4.50
2022-11-19T01:38:35.642Z,1.00
2022-11-19T01:41:03.172Z,1.00
2022-11-19T01:44:00.428Z,1.00
2022-11-19T01:46:31.447Z,1.00
2022-11-19T01:49:14.951Z,1.00
2022-11-19T01:51:49.037Z,1.00
2022-11-19T01:54:30.326Z,1.00
2022-11-19T01:57:03.025Z,1.00
2022-11-19T01:59:31.390Z,1.00
2022-11-19T02:01:58.326Z,1.00
2022-11-19T02:04:26.927Z,1.00
2022-11-19T02:06:55.190Z,1.00
2022-11-19T02:09:22.530Z,1.00
2022-11-19T02:11:56.039Z,1.00
2022-11-19T02:14:26.077Z,1.00
2022-11-19T02:17:17.848Z,1.00
2022-11-19T02:19:50.522Z,1.00
2022-11-19T02:22:39.446Z,1.00
2022-11-19T02:25:28.703Z,1.00
2022-11-19T02:28:20.505Z,1.00
2022-11-19T02:30:51.380Z,1.00
2022-11-19T02:33:26.256Z,1.00
2022-11-19T02:36:01.876Z,1.00
2022-11-19T02:38:39.534Z,1.00
2022-11-19T02:41:34.051Z,1.00
2022-11-19T02:44:46.419Z,1.00
2022-11-19T02:47:20.256Z,99.90
2022-11-19T02:49:49.562Z,99.90
2022-11-19T02:52:18.107Z,99.90
2022-11-19T02:54:45.547Z,99.90
2022-11-19T02:57:13.575Z,1.00
2022-11-19T03:00:14.715Z,99.90
2022-11-19T03:03:17.687Z,99.90
2022-11-19T03:05:51.151Z,99.90
2022-11-19T03:08:18.940Z,1.00
2022-11-19T03:10:54.968Z,99.90
2022-11-19T03:14:01.032Z,99.90
2022-11-19T03:16:43.596Z,99.90
2022-11-19T03:19:14.405Z,99.90
2022-11-19T03:21:52.933Z,99.90
2022-11-19T03:24:33.595Z,99.90
2022-11-19T03:27:15.009Z,99.90
2022-11-19T03:29:47.023Z,99.90
2022-11-19T03:32:19.856Z,99.90
2022-11-19T03:34:50.459Z,99.90
2022-11-19T03:37:22.311Z,99.90
2022-11-19T03:39:52.411Z,99.90
2022-11-19T03:42:21.192Z,99.90
2022-11-19T03:44:57.123Z,99.90
2022-11-19T03:47:33.035Z,99.90
2022-11-19T03:50:30.726Z,27.40
2022-11-19T03:53:03.862Z,54.90
2022-11-19T03:55:40.128Z,28.40
2022-11-19T03:58:09.800Z,34.90
2022-11-19T04:00:37.136Z,90.10
2022-11-19T04:03:04.848Z,99.90
2022-11-19T04:05:31.832Z,87.50
2022-11-19T04:07:58.805Z,1.00
2022-11-19T04:10:25.746Z,1.00
2022-11-19T04:12:52.716Z,1.00
2022-11-19T04:15:19.693Z,1.00
2022-11-19T04:17:46.717Z,1.00
2022-11-19T04:20:14.013Z,1.00
2022-11-19T04:22:41.083Z,1.00
2022-11-19T04:25:08.396Z,1.00
2022-11-19T04:27:35.511Z,1.00
2022-11-19T04:30:02.801Z,1.00
2022-11-19T04:32:30.077Z,1.00
2022-11-19T04:34:57.065Z,1.00
2022-11-19T04:37:24.011Z,1.00
2022-11-19T04:39:50.964Z,1.00
2022-11-19T04:42:17.854Z,1.00
2022-11-19T04:44:44.805Z,1.00
2022-11-19T04:47:11.758Z,99.90
2022-11-19T04:49:38.837Z,99.90
2022-11-19T04:52:05.928Z,99.90
2022-11-19T04:54:33.035Z,99.90
2022-11-19T04:56:59.957Z,99.90
2022-11-19T04:59:27.138Z,99.90
2022-11-19T05:01:54.151Z,99.90
2022-11-19T05:04:21.274Z,99.90
2022-11-19T05:06:48.274Z,99.90
2022-11-19T05:09:15.246Z,99.90
2022-11-19T05:11:42.163Z,99.90
2022-11-19T05:14:09.106Z,99.90
2022-11-19T05:16:36.269Z,99.90
2022-11-19T05:19:03.292Z,99.90
2022-11-19T05:21:30.294Z,99.90
2022-11-19T05:23:57.135Z,99.90
2022-11-19T05:26:24.192Z,99.90
2022-11-19T05:28:51.111Z,99.90
2022-11-19T05:31:17.982Z,99.90
2022-11-19T05:33:45.701Z,99.90
2022-11-19T05:36:13.197Z,99.90
2022-11-19T05:38:41.257Z,99.90
2022-11-19T05:41:08.227Z,99.90
2022-11-19T05:43:35.123Z,99.90
2022-11-19T05:46:03.019Z,99.90
2022-11-19T05:48:30.749Z,99.90
2022-11-19T05:50:57.656Z,99.90
2022-11-19T05:53:24.588Z,99.90
2022-11-19T05:55:51.439Z,99.90
2022-11-19T05:58:18.331Z,99.90
2022-11-19T06:00:45.258Z,99.90
2022-11-19T06:03:12.201Z,99.90
2022-11-19T06:05:40.682Z,99.90
2022-11-19T06:08:08.635Z,99.90
2022-11-19T06:10:35.616Z,99.90
2022-11-19T06:13:02.472Z,99.90
2022-11-19T06:15:29.398Z,99.90
2022-11-19T06:17:56.961Z,99.90
2022-11-19T06:20:24.046Z,99.90
2022-11-19T06:22:51.874Z,99.90
2022-11-19T06:25:19.283Z,99.90
2022-11-19T06:27:46.211Z,99.90
2022-11-19T06:30:14.158Z,99.90
2022-11-19T06:32:42.102Z,99.90
2022-11-19T06:35:09.815Z,99.90
2022-11-19T06:37:36.920Z,99.90
2022-11-19T06:40:04.199Z,99.90
2022-11-19T06:42:36.723Z,97.80
2022-11-19T06:45:09.842Z,79.90
2022-11-19T06:47:38.027Z,85.10
2022-11-19T06:50:07.489Z,82.70
2022-11-19T06:52:34.462Z,98.80
2022-11-19T06:55:01.611Z,88.80
2022-11-19T06:57:28.602Z,69.30
2022-11-19T06:59:55.548Z,90.00
2022-11-19T07:02:22.565Z,99.90
2022-11-19T07:04:49.589Z,99.90
2022-11-19T07:07:16.671Z,99.90
2022-11-19T07:09:43.591Z,99.90
2022-11-19T07:12:10.558Z,99.90
2022-11-19T07:14:37.615Z,99.90
2022-11-19T07:17:05.479Z,1.00
2022-11-19T07:19:32.490Z,1.00
2022-11-19T07:21:59.442Z,1.00
2022-11-19T07:24:26.931Z,1.00
2022-11-19T07:26:55.302Z,1.00
2022-11-19T07:29:23.338Z,1.00
2022-11-19T07:31:50.933Z,90.80
2022-11-19T07:34:18.511Z,99.90
2022-11-19T07:36:46.601Z,99.90
2022-11-19T07:39:14.241Z,99.90
2022-11-19T07:41:59.755Z,99.90
2022-11-19T07:44:27.036Z,11.60
2022-11-19T07:46:54.138Z,11.70
2022-11-19T07:49:21.631Z,1.00
2022-11-19T07:51:48.960Z,1.00
2022-11-19T07:54:16.063Z,1.00
2022-11-19T07:56:43.359Z,1.00
2022-11-19T07:59:10.958Z,1.00
2022-11-19T08:01:38.536Z,1.00
2022-11-19T08:04:05.515Z,99.90
2022-11-19T08:06:36.668Z,99.90
2022-11-19T08:09:05.398Z,99.90
2022-11-19T08:11:32.678Z,99.90
2022-11-19T08:14:03.084Z,99.90
2022-11-19T08:16:48.583Z,99.90
2022-11-19T08:19:16.656Z,99.90
2022-11-19T08:21:45.777Z,99.90
2022-11-19T08:24:13.889Z,99.90
2022-11-19T08:26:41.138Z,99.90
2022-11-19T08:29:14.692Z,99.90
2022-11-19T08:31:45.170Z,99.90
2022-11-19T08:34:12.130Z,91.30
2022-11-19T08:36:39.035Z,90.20
2022-11-19T08:39:07.005Z,93.30
2022-11-19T08:41:52.754Z,94.20
2022-11-19T08:44:20.024Z,82.20
2022-11-19T08:46:47.079Z,43.50
2022-11-19T08:49:14.357Z,32.00
2022-11-19T08:51:42.153Z,13.80
2022-11-19T08:54:09.617Z,13.30
2022-11-19T08:56:36.659Z,16.10
2022-11-19T08:59:03.779Z,12.70
2022-11-19T09:01:31.382Z,1.70
2022-11-19T09:03:59.043Z,2.40
2022-11-19T09:06:26.105Z,1.00
2022-11-19T09:08:53.129Z,1.00
2022-11-19T09:11:21.816Z,1.00
2022-11-19T09:13:49.143Z,1.00
2022-11-19T09:16:17.372Z,1.00
2022-11-19T09:18:44.758Z,1.00
2022-11-19T09:21:12.613Z,1.00
2022-11-19T09:23:41.506Z,1.00
2022-11-19T09:26:16.987Z,1.00
2022-11-19T09:28:45.034Z,1.00
2022-11-19T09:31:15.041Z,1.00
2022-11-19T09:33:45.812Z,1.00
2022-11-19T09:36:14.460Z,1.00
2022-11-19T09:38:41.787Z,1.00
2022-11-19T09:41:17.741Z,1.00
2022-11-19T09:44:25.510Z,1.00
2022-11-19T09:47:12.847Z,1.00
2022-11-19T09:49:44.256Z,1.00
2022-11-19T09:52:16.947Z,1.00
2022-11-19T09:54:51.890Z,1.50
2022-11-19T09:57:28.230Z,6.60
2022-11-19T09:59:59.038Z,27.40
2022-11-19T10:02:26.547Z,18.90
2022-11-19T10:04:54.415Z,47.00
2022-11-19T10:07:51.757Z,93.60
2022-11-19T10:10:41.364Z,99.90
2022-11-19T10:13:30.117Z,95.50
2022-11-19T10:16:09.012Z,99.90
2022-11-19T10:18:51.132Z,91.70
2022-11-19T10:21:22.396Z,88.50
2022-11-19T10:23:56.081Z,93.00
2022-11-19T10:26:39.454Z,75.20
2022-11-19T10:29:16.732Z,81.20
2022-11-19T10:31:48.606Z,41.90
2022-11-19T10:34:25.594Z,17.30
2022-11-19T10:37:03.308Z,2.70
2022-11-19T10:39:37.109Z,1.00
2022-11-19T10:42:19.335Z,1.00
2022-11-19T10:45:00.880Z,1.00
2022-11-19T10:47:44.460Z,1.00
2022-11-19T10:50:23.267Z,1.00
2022-11-19T10:53:13.979Z,1.00
2022-11-19T10:55:54.045Z,1.00
2022-11-19T10:58:24.272Z,1.00
2022-11-19T11:00:54.796Z,1.00
2022-11-19T11:03:30.959Z,1.00
2022-11-19T11:06:03.348Z,1.00
2022-11-19T11:08:30.252Z,1.00
2022-11-19T11:10:57.851Z,1.00
2022-11-19T11:13:49.241Z,1.00
2022-11-19T11:16:18.926Z,1.00
2022-11-19T11:18:47.140Z,1.00
2022-11-19T11:21:33.302Z,1.00
2022-11-19T11:24:02.688Z,1.00
2022-11-19T11:26:33.661Z,1.00
2022-11-19T11:29:27.051Z,1.00
2022-11-19T11:31:53.980Z,1.00
2022-11-19T11:34:43.938Z,1.00
2022-11-19T11:37:12.191Z,1.00
2022-11-19T11:39:44.388Z,1.00
2022-11-19T11:42:18.115Z,1.00
2022-11-19T11:44:57.790Z,1.00
2022-11-19T11:47:30.270Z,1.00
2022-11-19T11:50:03.315Z,1.00
2022-11-19T11:52:40.679Z,1.00
2022-11-19T11:55:27.578Z,1.00
2022-11-19T11:57:57.428Z,1.00
2022-11-19T12:00:32.142Z,1.00
2022-11-19T12:03:03.975Z,1.00
2022-11-19T12:05:49.195Z,1.00
2022-11-19T12:08:40.572Z,1.00
2022-11-19T12:11:25.282Z,1.00
2022-11-19T12:14:05.402Z,1.00
2022-11-19T12:16:49.889Z,1.00
2022-11-19T12:19:22.675Z,1.00
2022-11-19T12:21:49.696Z,1.00
2022-11-19T12:24:28.874Z,1.00
2022-11-19T12:27:06.642Z,1.00
2022-11-19T12:30:14.986Z,1.00
2022-11-19T12:32:53.804Z,1.00
2022-11-19T12:35:39.554Z,1.00
2022-11-19T12:38:19.088Z,1.00
2022-11-19T12:41:13.803Z,1.00
2022-11-19T12:43:49.887Z,1.00
2022-11-19T12:46:49.204Z,1.00
2022-11-19T12:49:25.088Z,1.00
2022-11-19T12:51:59.037Z,1.00
2022-11-19T12:54:58.688Z,1.00
2022-11-19T12:57:40.580Z,1.00
2022-11-19T13:00:22.583Z,1.00
2022-11-19T13:03:08.848Z,1.00
2022-11-19T13:05:50.348Z,1.00
2022-11-19T13:08:30.066Z,1.00
2022-11-19T13:11:17.619Z,1.00
2022-11-19T13:13:48.048Z,1.00
2022-11-19T13:16:18.459Z,1.00
2022-11-19T13:18:51.541Z,1.00
2022-11-19T13:21:51.182Z,1.00
2022-11-19T13:24:28.408Z,1.00
2022-11-19T13:26:59.856Z,1.00
2022-11-19T13:29:32.616Z,1.00
2022-11-19T13:32:13.920Z,1.00
2022-11-19T13:34:52.688Z,1.00
2022-11-19T13:37:40.013Z,1.00
2022-11-19T13:40:27.436Z,1.00
2022-11-19T13:46:17.159Z,1.00
2022-11-19T13:49:00.772Z,1.00
2022-11-19T13:51:49.571Z,1.00
2022-11-19T13:54:26.299Z,1.00
2022-11-19T13:56:57.168Z,1.00
2022-11-19T13:59:39.111Z,1.00
2022-11-19T14:02:27.623Z,1.00
2022-11-19T14:05:19.289Z,1.00
2022-11-19T14:07:58.030Z,1.00
2022-11-19T14:10:30.864Z,1.00
2022-11-19T14:13:35.851Z,1.00
2022-11-19T14:16:53.501Z,1.00
2022-11-19T14:19:39.002Z,1.00
2022-11-19T14:22:58.122Z,1.00
2022-11-19T14:26:12.713Z,1.00
2022-11-19T14:28:51.291Z,1.00
2022-11-19T14:31:22.034Z,1.00
2022-11-19T14:33:48.823Z,1.00
2022-11-19T14:36:19.317Z,1.00
2022-11-19T14:39:02.869Z,1.00
2022-11-19T14:41:35.201Z,1.00
2022-11-19T14:44:09.774Z,1.00
2022-11-19T14:46:54.801Z,1.00
2022-11-19T14:49:32.812Z,1.00
2022-11-19T14:52:00.371Z,1.00
2022-11-19T14:54:34.682Z,1.00
2022-11-19T14:57:05.553Z,1.00
2022-11-19T14:59:36.567Z,1.00
2022-11-19T15:02:23.339Z,1.00
2022-11-19T15:05:13.449Z,1.00
2022-11-19T15:07:44.981Z,1.00
2022-11-19T15:10:15.020Z,1.00
2022-11-19T15:12:44.868Z,1.00
2022-11-19T15:15:20.621Z,1.00
2022-11-19T15:18:02.007Z,1.00
2022-11-19T15:20:41.308Z,1.00
2022-11-19T15:23:10.941Z,1.00
2022-11-19T15:26:01.037Z,1.00
2022-11-19T15:29:00.148Z,1.00
2022-11-19T15:32:02.108Z,1.00
2022-11-19T15:34:56.549Z,1.00
2022-11-19T15:37:52.359Z,1.00
2022-11-19T15:40:26.125Z,1.00
2022-11-19T15:43:11.557Z,1.00
2022-11-19T15:45:52.229Z,1.00
2022-11-19T15:48:38.299Z,1.00
2022-11-19T15:51:07.721Z,1.00
2022-11-19T15:53:34.602Z,1.00
2022-11-19T15:56:06.319Z,1.00
2022-11-19T15:58:42.450Z,1.00
2022-11-19T16:01:13.494Z,1.00
2022-11-19T16:03:41.021Z,1.00
2022-11-19T16:06:14.626Z,1.00
2022-11-19T16:08:41.741Z,1.00
2022-11-19T16:11:27.125Z,1.00
2022-11-19T16:14:13.272Z,1.00
2022-11-19T16:16:58.918Z,1.00
2022-11-19T16:19:25.879Z,1.00
2022-11-19T16:22:02.156Z,1.00
2022-11-19T16:24:49.628Z,1.00
2022-11-19T16:27:23.656Z,1.00
2022-11-19T16:29:51.449Z,1.00
2022-11-19T16:32:21.421Z,1.00
2022-11-19T16:34:48.618Z,1.00
2022-11-19T16:37:19.251Z,1.00
2022-11-19T16:39:52.431Z,1.00
2022-11-19T16:42:26.548Z,1.00
2022-11-19T16:45:08.109Z,1.00
2022-11-19T16:47:38.566Z,1.00
2022-11-19T16:50:24.816Z,1.00
2022-11-19T16:52:51.833Z,1.00
2022-11-19T16:55:18.745Z,1.00
2022-11-19T16:57:51.958Z,1.00
2022-11-19T17:00:25.138Z,1.00
2022-11-19T17:02:52.283Z,1.00
2022-11-19T17:05:23.243Z,1.00
2022-11-19T17:07:52.270Z,1.00
2022-11-19T17:10:24.272Z,1.00
2022-11-19T17:12:57.074Z,1.00
2022-11-19T17:15:41.678Z,1.00
2022-11-19T17:18:30.289Z,1.00
2022-11-19T17:21:03.044Z,1.00
2022-11-19T17:23:32.879Z,1.00
2022-11-19T17:26:02.738Z,1.00
2022-11-19T17:28:35.309Z,1.00
2022-11-19T17:31:15.060Z,1.00
2022-11-19T17:33:55.680Z,1.00
2022-11-19T17:36:25.773Z,1.00
2022-11-19T17:38:52.669Z,1.00
2022-11-19T17:41:44.772Z,1.00
2022-11-19T17:44:34.951Z,1.00
2022-11-19T17:47:21.219Z,1.00
2022-11-19T17:49:49.513Z,1.00
2022-11-19T17:52:28.839Z,1.00
2022-11-19T17:54:58.749Z,1.00
2022-11-19T17:57:25.691Z,1.00
2022-11-19T17:59:52.596Z,1.00
2022-11-19T18:02:21.131Z,1.00
2022-11-19T18:04:48.383Z,1.00
2022-11-19T18:07:15.786Z,1.00
2022-11-19T18:09:42.791Z,1.00
2022-11-19T18:12:18.965Z,1.00
2022-11-19T18:14:46.835Z,1.00
2022-11-19T18:17:15.213Z,1.00
2022-11-19T18:19:42.227Z,1.00
2022-11-19T18:22:20.444Z,1.00
2022-11-19T18:24:49.564Z,1.00
2022-11-19T18:27:17.212Z,1.00
2022-11-19T18:29:44.168Z,1.00
2022-11-19T18:32:12.322Z,1.00
2022-11-19T18:34:39.228Z,1.00
2022-11-19T18:37:06.134Z,1.00
2022-11-19T18:39:33.070Z,1.00
2022-11-19T18:41:59.986Z,1.00
2022-11-19T18:44:36.124Z,1.00
2022-11-19T18:47:05.864Z,1.00
2022-11-19T18:49:35.815Z,1.00
2022-11-19T18:52:04.491Z,1.00
2022-11-19T18:54:31.621Z,1.00
2022-11-19T18:56:59.091Z,1.00
2022-11-19T18:59:26.018Z,1.00
2022-11-19T19:01:55.786Z,1.00
2022-11-19T19:04:23.227Z,1.00
2022-11-19T19:06:51.030Z,1.00
2022-11-19T19:09:21.823Z,1.00
2022-11-19T19:12:13.126Z,1.00
2022-11-19T19:14:40.864Z,1.00
2022-11-19T19:17:07.835Z,1.00
2022-11-19T19:19:34.764Z,1.00
2022-11-19T19:22:01.890Z,1.00
2022-11-19T19:24:29.108Z,1.00
2022-11-19T19:26:55.968Z,1.00
2022-11-19T19:29:22.980Z,1.00
2022-11-19T19:31:50.024Z,1.00
2022-11-19T19:34:17.136Z,1.00
2022-11-19T19:36:48.878Z,1.00
2022-11-19T19:39:18.862Z,1.00
2022-11-19T19:41:46.140Z,1.00
2022-11-19T19:44:13.011Z,1.00
2022-11-19T19:46:39.938Z,1.00
2022-11-19T19:49:06.824Z,5.40
2022-11-19T19:51:33.759Z,8.50
2022-11-19T19:54:01.275Z,23.00
2022-11-19T19:56:32.795Z,37.20
2022-11-19T19:59:01.028Z,26.60
2022-11-19T20:01:30.553Z,19.30
2022-11-19T20:04:02.689Z,20.50
2022-11-19T20:06:30.086Z,26.90
2022-11-19T20:08:57.121Z,37.40
2022-11-19T20:11:25.431Z,28.60
2022-11-19T20:13:54.322Z,11.00
2022-11-19T20:16:27.236Z,1.00
2022-11-19T20:18:55.187Z,1.00
2022-11-19T20:21:28.153Z,1.00
2022-11-19T20:23:55.560Z,1.00
2022-11-19T20:26:25.298Z,1.00
2022-11-19T20:28:57.902Z,1.00
2022-11-19T20:31:25.973Z,1.00
2022-11-19T20:33:58.436Z,1.00
2022-11-19T20:36:27.448Z,1.00
2022-11-19T20:38:54.480Z,1.00
2022-11-19T20:41:40.966Z,21.80
2022-11-19T20:44:20.259Z,39.00
2022-11-19T20:46:58.153Z,32.60
2022-11-19T20:49:30.706Z,24.30
2022-11-19T20:51:58.546Z,28.80
2022-11-19T20:54:26.294Z,14.40
2022-11-19T20:56:54.708Z,1.00
2022-11-19T20:59:22.745Z,1.00
2022-11-19T21:01:50.888Z,1.00
2022-11-19T21:04:21.704Z,1.00
2022-11-19T21:06:50.056Z,1.00
2022-11-19T21:09:17.316Z,1.00
2022-11-19T21:11:44.329Z,1.00
2022-11-19T21:14:11.824Z,1.00
2022-11-19T21:16:38.775Z,1.00
2022-11-19T21:19:05.726Z,8.20
2022-11-19T21:21:32.713Z,1.00
2022-11-19T21:23:59.658Z,1.00
2022-11-19T21:26:28.418Z,1.00
2022-11-19T21:28:57.286Z,1.00
2022-11-19T21:31:39.241Z,1.60
2022-11-19T21:34:14.252Z,1.00
2022-11-19T21:36:42.757Z,1.00
2022-11-19T21:39:10.592Z,16.10
2022-11-19T21:41:38.340Z,53.60
2022-11-19T21:44:06.081Z,96.00
2022-11-19T21:46:33.721Z,99.90
2022-11-19T21:49:00.857Z,99.90
2022-11-19T21:51:27.907Z,99.90
2022-11-19T21:53:58.132Z,99.90
2022-11-19T21:56:26.848Z,99.90
2022-11-19T21:58:53.910Z,99.90
2022-11-19T22:01:20.886Z,99.90
2022-11-19T22:03:47.849Z,99.90
2022-11-19T22:06:14.861Z,99.90
2022-11-19T22:08:42.508Z,99.90
2022-11-19T22:11:29.372Z,99.90
2022-11-19T22:14:08.253Z,99.90
2022-11-19T22:16:38.578Z,99.90
2022-11-19T22:19:06.322Z,99.90
2022-11-19T22:21:33.827Z,99.90
2022-11-19T22:24:00.790Z,99.90
2022-11-19T22:26:27.784Z,99.90
2022-11-19T22:28:55.182Z,99.90
2022-11-19T22:31:22.619Z,99.90
2022-11-19T22:33:51.816Z,99.90
2022-11-19T22:36:20.372Z,99.90
2022-11-19T22:38:47.217Z,99.90
2022-11-19T22:41:16.553Z,99.90
2022-11-19T22:43:44.034Z,99.90
2022-11-19T22:46:12.360Z,99.90
2022-11-19T22:48:39.755Z,99.90
2022-11-19T22:51:09.988Z,99.90
2022-11-19T22:53:37.683Z,99.90
2022-11-19T22:56:07.032Z,99.90
2022-11-19T22:58:35.132Z,99.90
2022-11-19T23:01:03.305Z,99.90
2022-11-19T23:03:30.431Z,99.90
2022-11-19T23:05:59.365Z,99.90
2022-11-19T23:08:26.801Z,99.90
2022-11-19T23:11:01.714Z,99.90
2022-11-19T23:13:33.571Z,99.90
2022-11-19T23:16:00.404Z,99.90
2022-11-19T23:18:27.902Z,99.90
2022-11-19T23:21:07.716Z,99.90
2022-11-19T23:23:35.282Z,99.90
2022-11-19T23:26:03.511Z,99.90
2022-11-19T23:28:32.489Z,99.90
2022-11-19T23:31:11.168Z,99.90
2022-11-19T23:33:38.082Z,99.90
2022-11-19T23:36:07.860Z,99.90
2022-11-19T23:38:36.530Z,99.90
2022-11-19T23:41:05.846Z,99.90
2022-11-19T23:43:33.681Z,99.90
2022-11-19T23:46:09.080Z,99.90
2022-11-19T23:48:37.863Z,99.90
2022-11-19T23:51:07.328Z,99.90
2022-11-19T23:53:34.232Z,99.90
2022-11-19T23:56:01.602Z,99.90
2022-11-19T23:58:28.532Z,99.90
